createdAt,value
2017-11-19T00:00:34.047Z,999.83
2017-11-19T00:01:34.066Z,999.87
2017-11-19T00:02:34.071Z,999.79
2017-11-19T00:03:34.086Z,999.85
2017-11-19T00:04:34.091Z,999.83
2017-11-19T00:05:34.103Z,999.79
2017-11-19T00:06:34.116Z,999.83
2017-11-19T00:07:34.125Z,999.81
2017-11-19T00:08:34.139Z,999.81
2017-11-19T00:09:34.148Z,999.84
2017-11-19T00:10:34.161Z,999.86
2017-11-19T00:11:34.170Z,999.82
2017-11-19T00:12:34.181Z,999.8
2017-11-19T00:13:34.192Z,999.83
2017-11-19T00:14:34.210Z,999.8
2017-11-19T00:15:34.215Z,999.8
2017-11-19T00:16:34.227Z,999.68
2017-11-19T00:17:34.238Z,999.75
2017-11-19T00:18:34.248Z,999.73
2017-11-19T00:19:34.259Z,999.73
2017-11-19T00:20:34.273Z,999.73
2017-11-19T00:21:34.283Z,999.75
2017-11-19T00:22:34.292Z,999.74
2017-11-19T00:23:34.305Z,999.71
2017-11-19T00:24:34.315Z,999.69
2017-11-19T00:25:34.325Z,999.72
2017-11-19T00:26:34.338Z,999.72
2017-11-19T00:27:34.350Z,999.7
2017-11-19T00:28:34.361Z,999.73
2017-11-19T00:29:34.371Z,999.73
2017-11-19T00:30:34.383Z,999.72
2017-11-19T00:31:34.396Z,999.7
2017-11-19T00:32:34.403Z,999.67
2017-11-19T00:33:34.415Z,999.65
2017-11-19T00:34:34.425Z,999.68
2017-11-19T00:35:34.437Z,999.63
2017-11-19T00:36:34.448Z,999.66
2017-11-19T00:37:34.459Z,999.63
2017-11-19T00:38:34.483Z,999.66
2017-11-19T00:39:34.481Z,999.59
2017-11-19T00:40:34.493Z,999.55
2017-11-19T00:41:34.506Z,999.54
2017-11-19T00:42:34.516Z,999.53
2017-11-19T00:43:34.531Z,999.53
2017-11-19T00:44:34.538Z,999.5
2017-11-19T00:45:34.547Z,999.5
2017-11-19T00:46:34.564Z,999.51
2017-11-19T00:47:34.570Z,999.43
2017-11-19T00:48:34.582Z,999.45
2017-11-19T00:49:34.592Z,999.46
2017-11-19T00:50:34.604Z,999.4
2017-11-19T00:51:34.620Z,999.42
2017-11-19T00:52:34.626Z,999.42
2017-11-19T00:53:34.643Z,999.4
2017-11-19T00:54:34.648Z,999.43
2017-11-19T00:55:34.661Z,999.42
2017-11-19T00:56:34.671Z,999.47
2017-11-19T00:57:34.681Z,999.42
2017-11-19T00:58:34.692Z,999.37
2017-11-19T00:59:34.704Z,999.42
2017-11-19T01:00:34.717Z,999.44
2017-11-19T01:01:34.728Z,999.41
2017-11-19T01:02:34.739Z,999.41
2017-11-19T01:03:34.751Z,999.4
2017-11-19T01:04:34.761Z,999.43
2017-11-19T01:05:34.771Z,999.45
2017-11-19T01:06:34.782Z,999.41
2017-11-19T01:07:34.795Z,999.38
2017-11-19T01:08:34.805Z,999.41
2017-11-19T01:09:34.817Z,999.37
2017-11-19T01:10:34.825Z,999.37
2017-11-19T01:11:34.839Z,999.35
2017-11-19T01:12:34.849Z,999.38
2017-11-19T01:13:34.859Z,999.36
2017-11-19T01:14:34.871Z,999.3
2017-11-19T01:15:34.881Z,999.29
2017-11-19T01:16:34.892Z,999.33
2017-11-19T01:17:34.903Z,999.26
2017-11-19T01:18:34.918Z,999.3
2017-11-19T01:19:34.930Z,999.34
2017-11-19T01:20:34.936Z,999.31
2017-11-19T01:21:34.950Z,999.29
2017-11-19T01:22:34.961Z,999.33
2017-11-19T01:23:34.971Z,999.26
2017-11-19T01:24:34.982Z,999.26
2017-11-19T01:25:34.993Z,999.27
2017-11-19T01:26:35.005Z,999.29
2017-11-19T01:27:35.019Z,999.26
2017-11-19T01:28:35.030Z,999.26
2017-11-19T01:29:35.070Z,999.24
2017-11-19T01:30:35.050Z,999.24
2017-11-19T01:31:35.059Z,999.21
2017-11-19T01:32:35.070Z,999.25
2017-11-19T01:33:35.083Z,999.2
2017-11-19T01:34:35.094Z,999.2
2017-11-19T01:35:35.105Z,999.2
2017-11-19T01:36:35.118Z,999.19
2017-11-19T01:37:35.129Z,999.15
2017-11-19T01:38:35.138Z,999.21
2017-11-19T01:39:35.152Z,999.19
2017-11-19T01:40:35.160Z,999.1
2017-11-19T01:41:35.172Z,999.13
2017-11-19T01:42:35.183Z,999.14
2017-11-19T01:43:35.195Z,999.13
2017-11-19T01:44:35.208Z,999.12
2017-11-19T01:45:35.222Z,999.08
2017-11-19T01:46:35.238Z,999.04
2017-11-19T01:47:35.239Z,998.96
2017-11-19T01:48:35.251Z,999
2017-11-19T01:49:35.259Z,999.02
2017-11-19T01:50:35.272Z,998.99
2017-11-19T01:51:35.285Z,998.99
2017-11-19T01:52:35.296Z,998.9
2017-11-19T01:53:35.305Z,998.91
2017-11-19T01:54:41.584Z,998.9
2017-11-19T01:55:35.330Z,998.87
2017-11-19T01:56:35.341Z,998.85
2017-11-19T01:57:35.351Z,998.85
2017-11-19T01:58:35.363Z,998.83
2017-11-19T01:59:35.377Z,998.86
2017-11-19T02:00:35.387Z,998.82
2017-11-19T02:01:35.399Z,998.77
2017-11-19T02:02:35.424Z,998.74
2017-11-19T02:03:35.419Z,998.73
2017-11-19T02:04:35.429Z,998.65
2017-11-19T02:05:35.442Z,998.66
2017-11-19T02:06:35.475Z,998.66
2017-11-19T02:07:35.463Z,998.64
2017-11-19T02:08:35.476Z,998.64
2017-11-19T02:09:35.492Z,998.63
2017-11-19T02:10:35.499Z,998.63
2017-11-19T02:11:35.507Z,998.6
2017-11-19T02:12:35.520Z,998.51
2017-11-19T02:13:35.530Z,998.56
2017-11-19T02:14:35.544Z,998.56
2017-11-19T02:15:35.552Z,998.52
2017-11-19T02:16:35.564Z,998.5
2017-11-19T02:17:35.576Z,998.49
2017-11-19T02:18:35.584Z,998.46
2017-11-19T02:19:35.598Z,998.49
2017-11-19T02:20:35.611Z,998.5
2017-11-19T02:21:35.623Z,998.49
2017-11-19T02:22:35.630Z,998.51
2017-11-19T02:23:35.641Z,998.51
2017-11-19T02:24:35.656Z,998.52
2017-11-19T02:25:35.666Z,998.52
2017-11-19T02:26:35.673Z,998.54
2017-11-19T02:27:35.686Z,998.52
2017-11-19T02:28:35.697Z,998.5
2017-11-19T02:29:35.709Z,998.5
2017-11-19T02:30:35.721Z,998.49
2017-11-19T02:31:35.733Z,998.49
2017-11-19T02:32:35.751Z,998.48
2017-11-19T02:33:35.768Z,998.45
2017-11-19T02:34:35.764Z,998.49
2017-11-19T02:35:35.777Z,998.48
2017-11-19T02:36:35.787Z,998.49
2017-11-19T02:37:35.805Z,998.4
2017-11-19T02:38:35.817Z,998.43
2017-11-19T02:39:35.821Z,998.4
2017-11-19T02:40:35.836Z,998.39
2017-11-19T02:41:35.854Z,998.42
2017-11-19T02:42:35.856Z,998.38
2017-11-19T02:43:35.865Z,998.38
2017-11-19T02:44:35.876Z,998.33
2017-11-19T02:45:35.893Z,998.33
2017-11-19T02:46:35.900Z,998.34
2017-11-19T02:47:35.914Z,998.34
2017-11-19T02:48:35.922Z,998.32
2017-11-19T02:49:35.932Z,998.33
2017-11-19T02:50:35.944Z,998.37
2017-11-19T02:51:35.971Z,998.32
2017-11-19T02:52:35.968Z,998.31
2017-11-19T02:53:35.977Z,998.28
2017-11-19T02:54:35.988Z,998.32
2017-11-19T02:55:36.000Z,998.27
2017-11-19T02:56:36.010Z,998.26
2017-11-19T02:57:36.028Z,998.3
2017-11-19T02:58:36.033Z,998.28
2017-11-19T02:59:36.045Z,998.29
2017-11-19T03:00:36.060Z,998.35
2017-11-19T03:01:36.065Z,998.32
2017-11-19T03:02:36.078Z,998.29
2017-11-19T03:03:36.089Z,998.34
2017-11-19T03:04:36.101Z,998.31
2017-11-19T03:05:36.111Z,998.31
2017-11-19T03:06:36.123Z,998.34
2017-11-19T03:07:36.135Z,998.28
2017-11-19T03:08:36.144Z,998.32
2017-11-19T03:09:36.159Z,998.25
2017-11-19T03:10:36.167Z,998.24
2017-11-19T03:11:36.179Z,998.26
2017-11-19T03:12:36.190Z,998.28
2017-11-19T03:13:36.202Z,998.26
2017-11-19T03:14:36.214Z,998.3
2017-11-19T03:15:36.224Z,998.26
2017-11-19T03:16:36.235Z,998.3
2017-11-19T03:17:36.255Z,998.27
2017-11-19T03:18:36.257Z,998.25
2017-11-19T03:19:36.269Z,998.28
2017-11-19T03:20:36.279Z,998.28
2017-11-19T03:21:36.292Z,998.3
2017-11-19T03:22:36.302Z,998.37
2017-11-19T03:23:36.318Z,998.36
2017-11-19T03:24:36.324Z,998.38
2017-11-19T03:25:36.334Z,998.4
2017-11-19T03:26:36.347Z,998.36
2017-11-19T03:27:36.357Z,998.38
2017-11-19T03:28:36.370Z,998.39
2017-11-19T03:29:36.381Z,998.33
2017-11-19T03:30:36.400Z,998.34
2017-11-19T03:31:36.402Z,998.35
2017-11-19T03:32:36.414Z,998.37
2017-11-19T03:33:36.425Z,998.39
2017-11-19T03:34:36.437Z,998.36
2017-11-19T03:35:36.448Z,998.31
2017-11-19T03:36:36.458Z,998.32
2017-11-19T03:37:36.481Z,998.32
2017-11-19T03:38:36.480Z,998.32
2017-11-19T03:39:36.490Z,998.27
2017-11-19T03:40:36.507Z,998.25
2017-11-19T03:41:36.514Z,998.24
2017-11-19T03:42:36.544Z,998.26
2017-11-19T03:43:36.541Z,998.2
2017-11-19T03:44:36.546Z,998.22
2017-11-19T03:45:36.559Z,998.2
2017-11-19T03:46:36.569Z,998.18
2017-11-19T03:47:36.579Z,998.16
2017-11-19T03:48:36.597Z,998.22
2017-11-19T03:49:36.605Z,998.23
2017-11-19T03:50:36.613Z,998.24
2017-11-19T03:51:36.626Z,998.22
2017-11-19T03:52:36.636Z,998.2
2017-11-19T03:53:36.676Z,998.19
2017-11-19T03:54:36.655Z,998.12
2017-11-19T03:55:36.670Z,998.13
2017-11-19T03:56:36.683Z,998.13
2017-11-19T03:57:36.692Z,998.16
2017-11-19T03:58:36.702Z,998.15
2017-11-19T03:59:36.713Z,998.2
2017-11-19T04:00:36.726Z,998.2
2017-11-19T04:01:36.736Z,998.18
2017-11-19T04:02:36.755Z,998.14
2017-11-19T04:03:36.758Z,998.17
2017-11-19T04:04:36.767Z,998.13
2017-11-19T04:05:36.782Z,998.13
2017-11-19T04:06:36.796Z,998.09
2017-11-19T04:07:36.803Z,998.1
2017-11-19T04:08:36.813Z,998.03
2017-11-19T04:09:36.824Z,998.05
2017-11-19T04:10:36.836Z,998.01
2017-11-19T04:11:36.849Z,998.01
2017-11-19T04:12:36.867Z,997.99
2017-11-19T04:13:36.866Z,997.99
2017-11-19T04:14:36.878Z,998.01
2017-11-19T04:15:36.892Z,997.97
2017-11-19T04:16:36.900Z,998.05
2017-11-19T04:17:36.913Z,998.03
2017-11-19T04:18:36.925Z,998.03
2017-11-19T04:19:36.934Z,998.04
2017-11-19T04:20:36.945Z,998
2017-11-19T04:21:36.956Z,997.97
2017-11-19T04:22:36.968Z,997.97
2017-11-19T04:23:36.977Z,997.97
2017-11-19T04:24:36.989Z,997.99
2017-11-19T04:25:36.999Z,997.95
2017-11-19T04:26:37.011Z,997.97
2017-11-19T04:27:37.021Z,997.97
2017-11-19T04:28:37.032Z,998.01
2017-11-19T04:29:37.047Z,998.01
2017-11-19T04:30:37.053Z,998.02
2017-11-19T04:31:37.068Z,998.01
2017-11-19T04:32:37.082Z,998.02
2017-11-19T04:33:37.088Z,998.01
2017-11-19T04:34:37.119Z,998
2017-11-19T04:35:37.112Z,997.99
2017-11-19T04:36:37.119Z,997.96
2017-11-19T04:37:37.131Z,997.95
2017-11-19T04:38:37.142Z,997.95
2017-11-19T04:39:37.155Z,997.89
2017-11-19T04:40:37.166Z,997.86
2017-11-19T04:41:37.176Z,997.86
2017-11-19T04:42:37.210Z,997.89
2017-11-19T04:43:37.197Z,997.88
2017-11-19T04:44:37.207Z,997.87
2017-11-19T04:45:37.220Z,997.89
2017-11-19T04:46:37.229Z,997.87
2017-11-19T04:47:37.243Z,997.92
2017-11-19T04:48:37.251Z,997.87
2017-11-19T04:49:37.261Z,997.92
2017-11-19T04:50:37.273Z,997.87
2017-11-19T04:51:37.286Z,997.84
2017-11-19T04:52:37.296Z,997.83
2017-11-19T04:53:37.307Z,997.85
2017-11-19T04:54:37.317Z,997.81
2017-11-19T04:55:37.326Z,997.79
2017-11-19T04:56:37.339Z,997.74
2017-11-19T04:57:37.353Z,997.76
2017-11-19T04:58:37.360Z,997.79
2017-11-19T04:59:37.371Z,997.79
2017-11-19T05:00:37.383Z,997.82
2017-11-19T05:01:37.394Z,997.79
2017-11-19T05:02:37.404Z,997.81
2017-11-19T05:03:37.414Z,997.81
2017-11-19T05:04:37.441Z,997.79
2017-11-19T05:05:37.436Z,997.8
2017-11-19T05:06:37.457Z,997.79
2017-11-19T05:07:37.461Z,997.79
2017-11-19T05:08:37.469Z,997.79
2017-11-19T05:09:37.479Z,997.75
2017-11-19T05:10:37.490Z,997.75
2017-11-19T05:11:37.502Z,997.72
2017-11-19T05:12:37.514Z,997.74
2017-11-19T05:13:37.523Z,997.75
2017-11-19T05:14:37.557Z,997.77
2017-11-19T05:15:37.554Z,997.74
2017-11-19T05:16:37.554Z,997.76
2017-11-19T05:17:37.564Z,997.75
2017-11-19T05:18:37.587Z,997.76
2017-11-19T05:19:37.586Z,997.71
2017-11-19T05:20:37.597Z,997.74
2017-11-19T05:21:37.608Z,997.72
2017-11-19T05:22:37.620Z,997.68
2017-11-19T05:23:37.629Z,997.65
2017-11-19T05:24:37.642Z,997.62
2017-11-19T05:25:37.652Z,997.63
2017-11-19T05:26:37.662Z,997.55
2017-11-19T05:27:37.674Z,997.64
2017-11-19T05:28:37.685Z,997.63
2017-11-19T05:29:37.693Z,997.63
2017-11-19T05:30:37.705Z,997.62
2017-11-19T05:31:37.717Z,997.58
2017-11-19T05:32:37.729Z,997.59
2017-11-19T05:33:37.737Z,997.62
2017-11-19T05:34:37.749Z,997.61
2017-11-19T05:35:37.760Z,997.6
2017-11-19T05:36:37.769Z,997.58
2017-11-19T05:37:37.781Z,997.57
2017-11-19T05:38:37.790Z,997.56
2017-11-19T05:39:37.799Z,997.57
2017-11-19T05:40:37.812Z,997.59
2017-11-19T05:41:37.824Z,997.61
2017-11-19T05:42:37.834Z,997.56
2017-11-19T05:43:37.850Z,997.56
2017-11-19T05:44:37.855Z,997.56
2017-11-19T05:45:37.865Z,997.55
2017-11-19T05:46:37.880Z,997.58
2017-11-19T05:47:37.920Z,997.54
2017-11-19T05:48:37.897Z,997.54
2017-11-19T05:49:37.907Z,997.53
2017-11-19T05:50:37.917Z,997.5
2017-11-19T05:51:37.929Z,997.53
2017-11-19T05:52:37.940Z,997.52
2017-11-19T05:53:37.951Z,997.49
2017-11-19T05:54:37.967Z,997.43
2017-11-19T05:55:37.975Z,997.46
2017-11-19T05:56:37.983Z,997.45
2017-11-19T05:57:37.993Z,997.43
2017-11-19T05:58:38.004Z,997.39
2017-11-19T05:59:38.013Z,997.44
2017-11-19T06:00:38.025Z,997.43
2017-11-19T06:01:38.037Z,997.43
2017-11-19T06:02:38.054Z,997.46
2017-11-19T06:03:38.056Z,997.44
2017-11-19T06:04:38.067Z,997.43
2017-11-19T06:05:38.079Z,997.39
2017-11-19T06:06:38.088Z,997.4
2017-11-19T06:07:38.099Z,997.44
2017-11-19T06:08:38.113Z,997.42
2017-11-19T06:09:38.122Z,997.39
2017-11-19T06:10:38.129Z,997.4
2017-11-19T06:11:38.145Z,997.39
2017-11-19T06:12:38.150Z,997.35
2017-11-19T06:13:38.160Z,997.35
2017-11-19T06:14:38.172Z,997.32
2017-11-19T06:15:38.183Z,997.35
2017-11-19T06:16:38.192Z,997.36
2017-11-19T06:17:38.205Z,997.34
2017-11-19T06:18:38.217Z,997.33
2017-11-19T06:19:38.227Z,997.28
2017-11-19T06:20:38.237Z,997.35
2017-11-19T06:21:38.247Z,997.38
2017-11-19T06:22:38.261Z,997.4
2017-11-19T06:23:38.268Z,997.43
2017-11-19T06:24:38.279Z,997.4
2017-11-19T06:25:38.291Z,997.44
2017-11-19T06:26:38.302Z,997.48
2017-11-19T06:27:38.320Z,997.44
2017-11-19T06:28:38.324Z,997.45
2017-11-19T06:29:38.335Z,997.48
2017-11-19T06:30:38.343Z,997.49
2017-11-19T06:31:38.354Z,997.47
2017-11-19T06:32:38.364Z,997.46
2017-11-19T06:33:38.380Z,997.49
2017-11-19T06:34:38.384Z,997.42
2017-11-19T06:35:38.396Z,997.46
2017-11-19T06:36:38.409Z,997.46
2017-11-19T06:37:38.417Z,997.48
2017-11-19T06:38:38.432Z,997.47
2017-11-19T06:39:38.438Z,997.5
2017-11-19T06:40:38.449Z,997.49
2017-11-19T06:41:38.471Z,997.49
2017-11-19T06:42:38.468Z,997.48
2017-11-19T06:43:38.482Z,997.48
2017-11-19T06:44:38.491Z,997.45
2017-11-19T06:45:38.520Z,997.44
2017-11-19T06:46:38.513Z,997.46
2017-11-19T06:47:38.521Z,997.44
2017-11-19T06:48:38.534Z,997.46
2017-11-19T06:49:38.543Z,997.44
2017-11-19T06:50:38.557Z,997.38
2017-11-19T06:51:38.565Z,997.41
2017-11-19T06:52:38.574Z,997.44
2017-11-19T06:53:38.586Z,997.37
2017-11-19T06:54:38.601Z,997.38
2017-11-19T06:55:38.607Z,997.4
2017-11-19T06:56:38.617Z,997.37
2017-11-19T06:57:38.626Z,997.39
2017-11-19T06:58:38.637Z,997.33
2017-11-19T06:59:38.649Z,997.39
2017-11-19T07:00:38.658Z,997.38
2017-11-19T07:01:38.669Z,997.35
2017-11-19T07:02:38.685Z,997.36
2017-11-19T07:03:38.692Z,997.38
2017-11-19T07:04:38.701Z,997.39
2017-11-19T07:05:38.712Z,997.4
2017-11-19T07:06:38.724Z,997.45
2017-11-19T07:07:38.733Z,997.5
2017-11-19T07:08:38.742Z,997.55
2017-11-19T07:09:38.761Z,997.53
2017-11-19T07:10:38.773Z,997.58
2017-11-19T07:11:38.773Z,997.49
2017-11-19T07:12:38.784Z,997.49
2017-11-19T07:13:38.809Z,997.51
2017-11-19T07:14:38.807Z,997.47
2017-11-19T07:15:38.816Z,997.41
2017-11-19T07:16:38.826Z,997.47
2017-11-19T07:17:38.839Z,997.48
2017-11-19T07:18:38.849Z,997.47
2017-11-19T07:19:38.859Z,997.49
2017-11-19T07:20:38.871Z,997.47
2017-11-19T07:21:38.882Z,997.41
2017-11-19T07:22:38.893Z,997.44
2017-11-19T07:23:38.901Z,997.42
2017-11-19T07:24:38.914Z,997.41
2017-11-19T07:25:38.923Z,997.46
2017-11-19T07:26:38.932Z,997.44
2017-11-19T07:27:38.946Z,997.4
2017-11-19T07:28:38.956Z,997.46
2017-11-19T07:29:38.964Z,997.41
2017-11-19T07:30:38.974Z,997.45
2017-11-19T07:31:38.991Z,997.42
2017-11-19T07:32:38.995Z,997.44
2017-11-19T07:33:39.008Z,997.49
2017-11-19T07:34:39.016Z,997.43
2017-11-19T07:35:39.032Z,997.42
2017-11-19T07:36:39.038Z,997.45
2017-11-19T07:37:39.048Z,997.42
2017-11-19T07:38:39.059Z,997.45
2017-11-19T07:39:39.069Z,997.43
2017-11-19T07:40:39.080Z,997.38
2017-11-19T07:41:39.093Z,997.32
2017-11-19T07:42:39.100Z,997.33
2017-11-19T07:43:39.113Z,997.35
2017-11-19T07:44:39.125Z,997.41
2017-11-19T07:45:39.136Z,997.37
2017-11-19T07:46:39.145Z,997.42
2017-11-19T07:47:39.157Z,997.38
2017-11-19T07:48:39.166Z,997.43
2017-11-19T07:49:39.175Z,997.39
2017-11-19T07:50:39.189Z,997.38
2017-11-19T07:51:39.202Z,997.37
2017-11-19T07:52:39.209Z,997.37
2017-11-19T07:53:39.221Z,997.42
2017-11-19T07:54:39.235Z,997.38
2017-11-19T07:55:39.240Z,997.36
2017-11-19T07:56:39.253Z,997.37
2017-11-19T07:57:39.264Z,997.38
2017-11-19T07:58:39.273Z,997.35
2017-11-19T07:59:39.287Z,997.33
2017-11-19T08:00:39.296Z,997.32
2017-11-19T08:01:39.307Z,997.35
2017-11-19T08:02:39.314Z,997.37
2017-11-19T08:03:39.327Z,997.4
2017-11-19T08:04:39.342Z,997.44
2017-11-19T08:05:39.351Z,997.41
2017-11-19T08:06:39.357Z,997.47
2017-11-19T08:07:39.372Z,997.45
2017-11-19T08:08:39.381Z,997.51
2017-11-19T08:09:39.392Z,997.42
2017-11-19T08:10:39.401Z,997.48
2017-11-19T08:11:39.424Z,997.49
2017-11-19T08:12:39.424Z,997.52
2017-11-19T08:13:39.434Z,997.47
2017-11-19T08:14:39.447Z,997.44
2017-11-19T08:15:39.456Z,997.42
2017-11-19T08:16:39.465Z,997.4
2017-11-19T08:17:39.485Z,997.41
2017-11-19T08:18:39.488Z,997.44
2017-11-19T08:19:39.501Z,997.43
2017-11-19T08:20:39.509Z,997.43
2017-11-19T08:21:39.520Z,997.44
2017-11-19T08:22:39.534Z,997.42
2017-11-19T08:23:39.543Z,997.51
2017-11-19T08:24:39.552Z,997.41
2017-11-19T08:25:39.565Z,997.47
2017-11-19T08:26:39.582Z,997.51
2017-11-19T08:27:39.585Z,997.54
2017-11-19T08:28:39.602Z,997.52
2017-11-19T08:29:39.607Z,997.48
2017-11-19T08:30:39.618Z,997.5
2017-11-19T08:31:39.627Z,997.52
2017-11-19T08:32:39.640Z,997.49
2017-11-19T08:33:39.649Z,997.51
2017-11-19T08:34:39.660Z,997.53
2017-11-19T08:35:39.676Z,997.56
2017-11-19T08:36:39.680Z,997.54
2017-11-19T08:37:39.692Z,997.51
2017-11-19T08:38:39.702Z,997.52
2017-11-19T08:39:39.714Z,997.52
2017-11-19T08:40:39.724Z,997.55
2017-11-19T08:41:39.742Z,997.51
2017-11-19T08:42:39.746Z,997.52
2017-11-19T08:43:39.758Z,997.51
2017-11-19T08:44:39.766Z,997.43
2017-11-19T08:45:39.779Z,997.46
2017-11-19T08:46:39.790Z,997.44
2017-11-19T08:47:39.801Z,997.46
2017-11-19T08:48:39.809Z,997.39
2017-11-19T08:49:39.820Z,997.42
2017-11-19T08:50:39.832Z,997.41
2017-11-19T08:51:39.846Z,997.4
2017-11-19T08:52:39.852Z,997.4
2017-11-19T08:53:39.865Z,997.39
2017-11-19T08:54:39.876Z,997.41
2017-11-19T08:55:39.887Z,997.4
2017-11-19T08:56:39.896Z,997.36
2017-11-19T08:57:39.908Z,997.39
2017-11-19T08:58:39.919Z,997.45
2017-11-19T08:59:39.938Z,997.46
2017-11-19T09:00:39.941Z,997.47
2017-11-19T09:01:39.952Z,997.48
2017-11-19T09:02:39.964Z,997.47
2017-11-19T09:03:39.974Z,997.4
2017-11-19T09:04:39.984Z,997.33
2017-11-19T09:05:39.995Z,997.38
2017-11-19T09:06:40.007Z,997.4
2017-11-19T09:07:40.018Z,997.41
2017-11-19T09:08:40.029Z,997.33
2017-11-19T09:09:40.041Z,997.38
2017-11-19T09:10:40.050Z,997.33
2017-11-19T09:11:40.068Z,997.38
2017-11-19T09:12:40.076Z,997.34
2017-11-19T09:13:40.083Z,997.41
2017-11-19T09:14:40.099Z,997.4
2017-11-19T09:15:40.105Z,997.32
2017-11-19T09:16:40.114Z,997.37
2017-11-19T09:17:40.126Z,997.34
2017-11-19T09:18:40.138Z,997.33
2017-11-19T09:19:40.148Z,997.34
2017-11-19T09:20:40.160Z,997.38
2017-11-19T09:21:40.172Z,997.32
2017-11-19T09:22:40.182Z,997.36
2017-11-19T09:23:40.192Z,997.16
2017-11-19T09:24:40.203Z,997.36
2017-11-19T09:25:40.221Z,997.31
2017-11-19T09:26:40.233Z,997.38
2017-11-19T09:27:40.239Z,997.37
2017-11-19T09:28:40.249Z,997.28
2017-11-19T09:29:40.262Z,997.34
2017-11-19T09:30:40.271Z,997.31
2017-11-19T09:31:40.284Z,997.32
2017-11-19T09:32:40.294Z,997.29
2017-11-19T09:33:40.305Z,997.33
2017-11-19T09:34:40.315Z,997.3
2017-11-19T09:35:40.327Z,997.27
2017-11-19T09:36:40.340Z,997.3
2017-11-19T09:37:40.349Z,997.35
2017-11-19T09:38:40.364Z,997.3
2017-11-19T09:39:40.373Z,997.26
2017-11-19T09:40:40.387Z,997.31
2017-11-19T09:41:40.394Z,997.32
2017-11-19T09:42:40.406Z,997.32
2017-11-19T09:43:40.418Z,997.39
2017-11-19T09:44:40.426Z,997.39
2017-11-19T09:45:40.441Z,997.37
2017-11-19T09:46:40.454Z,997.41
2017-11-19T09:47:40.464Z,997.38
2017-11-19T09:48:40.472Z,997.38
2017-11-19T09:49:40.484Z,997.36
2017-11-19T09:50:40.495Z,997.34
2017-11-19T09:51:40.507Z,997.34
2017-11-19T09:52:40.547Z,997.35
2017-11-19T09:53:40.529Z,997.37
2017-11-19T09:54:40.543Z,997.36
2017-11-19T09:55:40.551Z,997.42
2017-11-19T09:56:40.561Z,997.47
2017-11-19T09:57:40.575Z,997.55
2017-11-19T09:58:40.592Z,997.44
2017-11-19T09:59:40.597Z,997.44
2017-11-19T10:00:40.609Z,997.39
2017-11-19T10:01:40.620Z,997.49
2017-11-19T10:02:40.634Z,997.43
2017-11-19T10:03:40.643Z,997.47
2017-11-19T10:04:40.656Z,997.47
2017-11-19T10:05:40.666Z,997.49
2017-11-19T10:06:40.692Z,997.48
2017-11-19T10:07:40.695Z,997.52
2017-11-19T10:08:40.705Z,997.46
2017-11-19T10:09:40.713Z,997.43
2017-11-19T10:10:40.722Z,997.44
2017-11-19T10:11:40.736Z,997.48
2017-11-19T10:12:40.747Z,997.45
2017-11-19T10:13:40.762Z,997.47
2017-11-19T10:14:40.771Z,997.43
2017-11-19T10:15:40.782Z,997.52
2017-11-19T10:16:40.793Z,997.42
2017-11-19T10:17:40.805Z,997.46
2017-11-19T10:18:40.817Z,997.4
2017-11-19T10:19:40.827Z,997.39
2017-11-19T10:20:40.840Z,997.46
2017-11-19T10:21:40.851Z,997.41
2017-11-19T10:22:40.862Z,997.45
2017-11-19T10:23:40.879Z,997.39
2017-11-19T10:24:40.892Z,997.4
2017-11-19T10:25:40.899Z,997.41
2017-11-19T10:26:40.916Z,997.38
2017-11-19T10:27:40.922Z,997.39
2017-11-19T10:28:40.934Z,997.37
2017-11-19T10:29:40.945Z,997.36
2017-11-19T10:30:40.959Z,997.32
2017-11-19T10:31:40.969Z,997.36
2017-11-19T10:32:40.978Z,997.33
2017-11-19T10:33:40.992Z,997.38
2017-11-19T10:34:41.005Z,997.25
2017-11-19T10:35:41.018Z,997.27
2017-11-19T10:36:41.028Z,997.28
2017-11-19T10:37:41.041Z,997.28
2017-11-19T10:38:41.052Z,997.24
2017-11-19T10:39:41.067Z,997.29
2017-11-19T10:40:41.088Z,997.3
2017-11-19T10:41:41.089Z,997.31
2017-11-19T10:42:41.101Z,997.24
2017-11-19T10:43:41.111Z,997.25
2017-11-19T10:44:41.124Z,997.25
2017-11-19T10:45:41.142Z,997.24
2017-11-19T10:46:41.151Z,997.26
2017-11-19T10:47:41.161Z,997.33
2017-11-19T10:48:41.172Z,997.29
2017-11-19T10:49:41.186Z,997.24
2017-11-19T10:50:41.211Z,997.32
2017-11-19T10:51:41.207Z,997.27
2017-11-19T10:52:41.221Z,997.32
2017-11-19T10:53:41.235Z,997.26
2017-11-19T10:54:41.255Z,997.32
2017-11-19T10:55:41.256Z,997.27
2017-11-19T10:56:41.271Z,997.22
2017-11-19T10:57:41.282Z,997.19
2017-11-19T10:58:41.295Z,997.27
2017-11-19T10:59:41.306Z,997.24
2017-11-19T11:00:41.317Z,997.27
2017-11-19T11:01:41.331Z,997.32
2017-11-19T11:02:41.343Z,997.22
2017-11-19T11:03:41.355Z,997.34
2017-11-19T11:04:41.368Z,997.28
2017-11-19T11:05:41.381Z,997.3
2017-11-19T11:06:41.392Z,997.23
2017-11-19T11:07:41.405Z,997.3
2017-11-19T11:08:41.417Z,997.28
2017-11-19T11:09:41.428Z,997.26
2017-11-19T11:10:41.442Z,997.24
2017-11-19T11:11:41.454Z,997.27
2017-11-19T11:12:41.465Z,997.25
2017-11-19T11:13:41.481Z,997.18
2017-11-19T11:14:41.491Z,997.19
2017-11-19T11:15:41.506Z,997.19
2017-11-19T11:16:41.515Z,997.14
2017-11-19T11:17:41.528Z,997.11
2017-11-19T11:18:41.542Z,997.17
2017-11-19T11:19:41.553Z,997.15
2017-11-19T11:20:41.570Z,997.15
2017-11-19T11:21:41.580Z,997.19
2017-11-19T11:22:41.592Z,997.09
2017-11-19T11:23:41.603Z,997.09
2017-11-19T11:24:41.617Z,997.16
2017-11-19T11:25:41.628Z,997.13
2017-11-19T11:26:41.640Z,997.15
2017-11-19T11:27:41.653Z,997.13
2017-11-19T11:28:41.665Z,997.22
2017-11-19T11:29:41.684Z,997.16
2017-11-19T11:30:41.719Z,997.2
2017-11-19T11:31:41.710Z,997.18
2017-11-19T11:32:41.717Z,997.14
2017-11-19T11:33:41.729Z,997.15
2017-11-19T11:34:41.744Z,997.16
2017-11-19T11:35:41.756Z,997.15
2017-11-19T11:36:41.769Z,997.11
2017-11-19T11:37:41.779Z,997.13
2017-11-19T11:38:41.793Z,997.19
2017-11-19T11:39:41.805Z,997.1
2017-11-19T11:40:41.818Z,997.03
2017-11-19T11:41:41.830Z,997.02
2017-11-19T11:42:41.844Z,997.05
2017-11-19T11:43:41.854Z,997.07
2017-11-19T11:44:41.869Z,997
2017-11-19T11:45:41.880Z,997.04
2017-11-19T11:46:41.895Z,997.02
2017-11-19T11:47:41.907Z,996.98
2017-11-19T11:48:41.917Z,997.02
2017-11-19T11:49:41.931Z,997
2017-11-19T11:50:41.946Z,997
2017-11-19T11:51:41.955Z,997
2017-11-19T11:52:41.981Z,996.96
2017-11-19T11:53:41.982Z,996.9
2017-11-19T11:54:41.994Z,996.96
2017-11-19T11:55:42.010Z,996.95
2017-11-19T11:56:42.022Z,997
2017-11-19T11:57:42.033Z,996.92
2017-11-19T11:58:42.047Z,997.05
2017-11-19T11:59:42.062Z,996.94
2017-11-19T12:00:42.070Z,996.98
2017-11-19T12:01:42.084Z,996.97
2017-11-19T12:02:42.099Z,997.07
2017-11-19T12:03:42.108Z,997.01
2017-11-19T12:04:42.123Z,996.98
2017-11-19T12:05:42.137Z,997.02
2017-11-19T12:06:42.149Z,997.09
2017-11-19T12:07:42.160Z,997.08
2017-11-19T12:08:42.176Z,997.09
2017-11-19T12:09:42.186Z,997.06
2017-11-19T12:10:42.199Z,997.02
2017-11-19T12:11:42.212Z,997.06
2017-11-19T12:12:42.224Z,997.05
2017-11-19T12:13:42.239Z,997.06
2017-11-19T12:14:42.251Z,997.07
2017-11-19T12:15:42.263Z,997.07
2017-11-19T12:16:42.283Z,997.08
2017-11-19T12:17:42.297Z,997.05
2017-11-19T12:18:42.304Z,997
2017-11-19T12:19:42.317Z,997.07
2017-11-19T12:20:42.328Z,997.04
2017-11-19T12:21:42.342Z,996.99
2017-11-19T12:22:42.353Z,997.05
2017-11-19T12:23:42.367Z,997.15
2017-11-19T12:24:42.385Z,997.14
2017-11-19T12:25:42.392Z,997.11
2017-11-19T12:26:42.405Z,997.17
2017-11-19T12:27:42.418Z,997.12
2017-11-19T12:28:42.430Z,997.13
2017-11-19T12:29:42.444Z,997.12
2017-11-19T12:30:42.458Z,997.13
2017-11-19T12:31:42.470Z,997.22